Waynesville, North Carolina
Current Conditions -  °F | °C
As of 5:54 AM on Friday 28 Nov 2014 (Local Time) from KAVL Reporting Station
Few Clouds Few Clouds  
Wind Chill: 14°   Ceiling: Unl
Heat Index: 25°   Visibility: 10mi
Dew Point: 14°   Wind: 12mph
Humidity: 63%   Direction: 340°NNW
Pressure: 30.29"   Gusts: NA
Location:  35.48°N, 83.01°W
Report Text: KAVL 281054Z AUTO 34010KT 10SM FEW031 M04/M10 A3029 RMK AO2 SLP272 T10391100
Loading
Personal Weather Stations






























Interactive Weather Map New forecast layout! Learn more

10-Day Weather Forecast

Advertisements
Track Severe Weather on mobile